createdAt,value
2019-02-05T00:01:13.745Z,9.50
2019-02-05T00:03:42.905Z,9.53
2019-02-05T00:06:12.047Z,9.77
2019-02-05T00:08:41.518Z,8.97
2019-02-05T00:11:10.713Z,10.60
2019-02-05T00:13:39.891Z,9.00
2019-02-05T00:16:09.046Z,8.90
2019-02-05T00:18:38.485Z,10.03
2019-02-05T00:21:07.658Z,10.17
2019-02-05T00:23:37.091Z,9.67
2019-02-05T00:26:06.703Z,10.00
2019-02-05T00:28:35.993Z,11.00
2019-02-05T00:31:07.078Z,10.13
2019-02-05T00:33:36.204Z,10.50
2019-02-05T00:36:07.171Z,10.97
2019-02-05T00:38:36.330Z,10.43
2019-02-05T00:41:05.810Z,10.13
2019-02-05T00:43:35.408Z,11.27
2019-02-05T00:46:04.651Z,9.30
2019-02-05T00:48:33.808Z,11.23
2019-02-05T00:51:03.057Z,11.40
2019-02-05T00:53:32.207Z,11.27
2019-02-05T00:56:05.217Z,12.13
2019-02-05T00:58:34.409Z,11.03
2019-02-05T01:01:03.913Z,12.43
2019-02-05T01:03:33.353Z,12.77
2019-02-05T01:06:02.802Z,12.60
2019-02-05T01:08:32.202Z,12.43
2019-02-05T01:11:01.519Z,13.80
2019-02-05T01:13:30.701Z,13.60
2019-02-05T01:15:59.978Z,14.03
2019-02-05T01:18:29.245Z,13.33
2019-02-05T01:20:58.579Z,13.73
2019-02-05T01:23:28.003Z,14.27
2019-02-05T01:25:57.126Z,13.27
2019-02-05T01:28:26.566Z,14.10
2019-02-05T01:30:55.724Z,14.07
2019-02-05T01:33:24.928Z,12.40
2019-02-05T01:35:54.196Z,13.10
2019-02-05T01:38:23.421Z,15.13
2019-02-05T01:40:52.653Z,15.57
2019-02-05T01:43:21.790Z,14.23
2019-02-05T01:45:51.171Z,16.13
2019-02-05T01:48:20.327Z,16.80
2019-02-05T01:50:49.578Z,16.53
2019-02-05T01:53:18.783Z,17.73
2019-02-05T01:55:48.136Z,17.33
2019-02-05T01:58:17.251Z,17.37
2019-02-05T02:00:46.407Z,19.00
2019-02-05T02:03:15.678Z,19.33
2019-02-05T02:05:45.044Z,19.50
2019-02-05T02:08:14.470Z,20.70
2019-02-05T02:10:43.698Z,20.77
2019-02-05T02:13:12.840Z,20.33
2019-02-05T02:15:42.037Z,21.87
2019-02-05T02:18:11.247Z,22.07
2019-02-05T02:20:40.699Z,22.67
2019-02-05T02:23:09.899Z,22.53
2019-02-05T02:25:39.064Z,21.67
2019-02-05T02:28:08.237Z,23.13
2019-02-05T02:30:38.979Z,22.50
2019-02-05T02:33:08.486Z,24.87
2019-02-05T02:35:38.033Z,21.23
2019-02-05T02:38:07.192Z,19.93
2019-02-05T02:40:36.356Z,24.87
2019-02-05T02:43:05.471Z,24.90
2019-02-05T02:45:34.836Z,26.87
2019-02-05T02:48:04.291Z,25.63
2019-02-05T02:50:33.664Z,26.17
2019-02-05T02:53:02.923Z,25.97
2019-02-05T02:55:32.091Z,25.90
2019-02-05T02:58:01.250Z,27.50
2019-02-05T03:00:30.468Z,27.10
2019-02-05T03:02:59.627Z,26.97
2019-02-05T03:05:29.294Z,26.03
2019-02-05T03:07:58.466Z,26.57
2019-02-05T03:10:29.599Z,26.17
2019-02-05T03:12:59.205Z,27.77
2019-02-05T03:15:28.357Z,26.37
2019-02-05T03:17:57.653Z,28.77
2019-02-05T03:20:26.846Z,23.77
2019-02-05T03:22:56.525Z,29.13
2019-02-05T03:25:26.195Z,27.03
2019-02-05T03:27:55.677Z,27.53
2019-02-05T03:30:25.618Z,29.33
2019-02-05T03:32:55.591Z,28.40
2019-02-05T03:35:24.910Z,28.80
2019-02-05T03:37:54.101Z,27.47
2019-02-05T03:41:10.354Z,29.63
2019-02-05T03:43:40.489Z,28.10
2019-02-05T03:46:14.534Z,28.83
2019-02-05T03:48:44.221Z,29.50
2019-02-05T03:51:53.256Z,30.40
2019-02-05T03:54:49.944Z,28.40
2019-02-05T03:57:43.836Z,20.80
2019-02-05T04:00:34.798Z,30.53
2019-02-05T04:03:32.413Z,30.47
2019-02-05T04:06:10.482Z,27.93
2019-02-05T04:09:09.768Z,29.40
2019-02-05T04:12:06.051Z,31.07
2019-02-05T04:15:12.307Z,31.63
2019-02-05T04:18:11.425Z,31.17
2019-02-05T04:21:34.226Z,32.83
2019-02-05T04:24:33.363Z,32.40
2019-02-05T04:27:43.827Z,31.83
2019-02-05T04:30:48.858Z,31.30
2019-02-05T04:34:04.138Z,32.83
2019-02-05T04:37:22.045Z,29.23
2019-02-05T04:40:23.198Z,28.97
2019-02-05T04:43:13.022Z,32.87
2019-02-05T04:46:02.893Z,34.60
2019-02-05T04:49:24.826Z,28.53
2019-02-05T04:52:44.135Z,32.73
2019-02-05T04:55:57.915Z,32.60
2019-02-05T04:59:10.752Z,33.13
2019-02-05T05:02:11.157Z,34.07
2019-02-05T05:05:02.046Z,36.60
2019-02-05T05:08:18.846Z,36.77
2019-02-05T05:10:48.066Z,35.10
2019-02-05T05:13:17.227Z,34.70
2019-02-05T05:15:46.395Z,36.33
2019-02-05T05:18:15.734Z,36.13
2019-02-05T05:20:45.018Z,36.27
2019-02-05T05:23:14.149Z,34.63
2019-02-05T05:25:43.428Z,35.77
2019-02-05T05:28:12.674Z,34.97
2019-02-05T05:30:41.858Z,34.47
2019-02-05T05:33:11.420Z,35.43
2019-02-05T05:35:44.338Z,36.03
2019-02-05T05:38:11.537Z,35.27
2019-02-05T05:40:40.691Z,32.43
2019-02-05T05:43:09.837Z,35.97
2019-02-05T05:45:38.986Z,32.90
2019-02-05T05:48:08.179Z,35.80
2019-02-05T05:50:37.394Z,35.47
2019-02-05T05:53:06.838Z,35.10
2019-02-05T05:55:36.018Z,34.13
2019-02-05T05:58:05.457Z,33.63
2019-02-05T06:00:34.658Z,32.37
2019-02-05T06:03:03.897Z,32.10
2019-02-05T06:05:33.382Z,35.10
2019-02-05T06:08:02.813Z,32.53
2019-02-05T06:10:32.038Z,31.37
2019-02-05T06:13:01.182Z,32.33
2019-02-05T06:15:30.375Z,31.23
2019-02-05T06:17:59.555Z,31.73
2019-02-05T06:20:28.851Z,32.97
2019-02-05T06:22:57.967Z,33.27
2019-02-05T06:25:27.211Z,34.40
2019-02-05T06:27:56.540Z,33.33
2019-02-05T06:30:25.768Z,33.57
2019-02-05T06:32:54.971Z,33.10
2019-02-05T06:35:24.325Z,34.50
2019-02-05T06:37:53.957Z,30.50
2019-02-05T06:40:23.325Z,31.43
2019-02-05T06:42:52.561Z,33.80
2019-02-05T06:45:21.732Z,32.90
2019-02-05T06:47:50.949Z,33.97
2019-02-05T06:50:20.191Z,32.80
2019-02-05T06:52:49.507Z,31.40
2019-02-05T06:55:18.644Z,33.23
2019-02-05T06:57:47.857Z,35.07
2019-02-05T07:00:26.402Z,33.27
2019-02-05T07:02:55.564Z,32.97
2019-02-05T07:05:24.745Z,26.03
2019-02-05T07:07:54.348Z,34.70
2019-02-05T07:10:23.794Z,31.27
2019-02-05T07:12:53.008Z,31.40
2019-02-05T07:15:22.225Z,32.10
2019-02-05T07:17:51.399Z,30.80
2019-02-05T07:20:20.635Z,34.83
2019-02-05T07:22:49.932Z,33.07
2019-02-05T07:25:19.421Z,34.23
2019-02-05T07:27:48.660Z,31.37
2019-02-05T07:30:22.759Z,31.93
2019-02-05T07:32:51.926Z,31.37
2019-02-05T07:35:21.129Z,36.27
2019-02-05T07:37:50.553Z,34.63
2019-02-05T07:40:20.371Z,30.83
2019-02-05T07:42:49.589Z,25.37
2019-02-05T07:45:20.315Z,34.03
2019-02-05T07:47:49.956Z,37.00
2019-02-05T07:50:24.320Z,33.17
2019-02-05T07:52:53.544Z,36.60
2019-02-05T07:55:23.166Z,30.80
2019-02-05T07:57:52.540Z,34.13
2019-02-05T08:00:24.278Z,35.17
2019-02-05T08:02:53.723Z,35.57
2019-02-05T08:05:28.717Z,38.37
2019-02-05T08:07:58.482Z,37.43
2019-02-05T08:10:27.666Z,38.90
2019-02-05T08:12:56.949Z,36.63
2019-02-05T08:15:28.459Z,36.10
2019-02-05T08:17:57.787Z,40.77
2019-02-05T08:20:27.483Z,22.83
2019-02-05T08:22:57.185Z,38.33
2019-02-05T08:25:26.364Z,38.43
2019-02-05T08:27:55.960Z,37.00
2019-02-05T08:30:30.902Z,36.50
2019-02-05T08:33:00.095Z,31.17
2019-02-05T08:35:29.430Z,32.80
2019-02-05T08:37:58.722Z,37.07
2019-02-05T08:40:27.911Z,35.73
2019-02-05T08:42:57.123Z,36.30
2019-02-05T08:45:28.094Z,35.93
2019-02-05T08:47:57.314Z,36.90
2019-02-05T08:50:28.246Z,37.60
2019-02-05T08:52:57.477Z,37.93
2019-02-05T08:55:26.667Z,37.60
2019-02-05T08:57:58.211Z,37.77
2019-02-05T09:00:30.179Z,35.23
2019-02-05T09:02:59.389Z,37.23
2019-02-05T09:05:28.546Z,37.40
2019-02-05T09:07:57.809Z,38.30
2019-02-05T09:10:29.605Z,36.17
2019-02-05T09:12:58.821Z,36.57
2019-02-05T09:15:29.701Z,37.03
2019-02-05T09:17:59.309Z,36.87
2019-02-05T09:20:29.944Z,33.17
2019-02-05T09:22:59.166Z,35.00
2019-02-05T09:25:28.394Z,33.50
2019-02-05T09:27:57.657Z,33.43
2019-02-05T09:30:29.140Z,32.57
2019-02-05T09:33:00.094Z,34.43
2019-02-05T09:35:29.256Z,34.47
2019-02-05T09:38:04.736Z,33.13
2019-02-05T09:40:34.151Z,33.40
2019-02-05T09:43:03.528Z,34.57
2019-02-05T09:45:33.147Z,35.30
2019-02-05T09:48:02.641Z,34.60
2019-02-05T09:50:44.321Z,32.87
2019-02-05T09:53:04.254Z,31.77
2019-02-05T09:55:35.974Z,35.13
2019-02-05T09:58:04.578Z,34.63
2019-02-05T10:00:36.095Z,35.27
2019-02-05T10:03:06.406Z,33.47
2019-02-05T10:05:35.636Z,35.33
2019-02-05T10:08:05.116Z,34.20
2019-02-05T10:10:34.455Z,37.80
2019-02-05T10:13:03.939Z,34.73
2019-02-05T10:15:35.009Z,34.50
2019-02-05T10:18:04.661Z,36.13
2019-02-05T10:20:33.910Z,35.77
2019-02-05T10:23:05.270Z,37.23
2019-02-05T10:25:34.447Z,36.20
2019-02-05T10:28:03.687Z,34.83
2019-02-05T10:30:38.095Z,37.83
2019-02-05T10:33:07.980Z,38.33
2019-02-05T10:35:37.232Z,34.43
2019-02-05T10:38:06.846Z,34.03
2019-02-05T10:40:36.188Z,36.27
2019-02-05T10:43:06.528Z,35.07
2019-02-05T10:45:36.250Z,35.17
2019-02-05T10:48:06.967Z,33.73
2019-02-05T10:50:36.196Z,34.43
2019-02-05T10:53:05.649Z,33.33
2019-02-05T10:55:34.901Z,33.50
2019-02-05T10:58:04.112Z,31.93
2019-02-05T11:00:33.502Z,33.87
2019-02-05T11:03:03.644Z,31.53
2019-02-05T11:05:33.118Z,30.73
2019-02-05T11:08:03.149Z,30.90
2019-02-05T11:10:33.688Z,30.10
2019-02-05T11:13:03.022Z,29.77
2019-02-05T11:15:32.985Z,29.10
2019-02-05T11:18:02.636Z,26.90
2019-02-05T11:20:32.279Z,26.43
2019-02-05T11:23:02.324Z,27.63
2019-02-05T11:25:31.571Z,26.63
2019-02-05T11:28:02.563Z,27.10
2019-02-05T11:30:36.985Z,26.27
2019-02-05T11:33:06.333Z,25.63
2019-02-05T11:35:35.872Z,26.80
2019-02-05T11:38:06.075Z,26.90
2019-02-05T11:40:36.097Z,22.80
2019-02-05T11:43:05.568Z,25.67
2019-02-05T11:45:34.733Z,23.13
2019-02-05T11:48:04.525Z,25.43
2019-02-05T11:50:34.135Z,25.23
2019-02-05T11:53:03.452Z,27.20
2019-02-05T11:55:33.318Z,26.33
2019-02-05T11:58:02.512Z,23.63
2019-02-05T12:00:35.298Z,23.23
2019-02-05T12:03:05.072Z,24.73
2019-02-05T12:05:34.727Z,24.30
2019-02-05T12:08:04.215Z,23.43
2019-02-05T12:10:33.487Z,22.77
2019-02-05T12:13:02.807Z,24.03
2019-02-05T12:15:32.000Z,24.20
2019-02-05T12:18:02.160Z,24.40
2019-02-05T12:20:31.392Z,24.23
2019-02-05T12:23:03.040Z,20.83
2019-02-05T12:25:32.329Z,22.03
2019-02-05T12:28:02.928Z,23.20
2019-02-05T12:30:44.556Z,23.13
2019-02-05T12:33:06.463Z,23.87
2019-02-05T12:35:35.829Z,24.13
2019-02-05T12:38:05.948Z,19.20
2019-02-05T12:40:35.716Z,25.10
2019-02-05T12:43:05.576Z,23.70
2019-02-05T12:45:35.366Z,24.97
2019-02-05T12:48:04.598Z,23.83
2019-02-05T12:50:35.015Z,25.17
2019-02-05T12:53:04.635Z,22.07
2019-02-05T12:55:33.927Z,23.83
2019-02-05T12:58:03.124Z,23.77
2019-02-05T13:00:37.983Z,22.73
2019-02-05T13:03:08.090Z,23.33
2019-02-05T13:05:37.344Z,22.70
2019-02-05T13:08:07.048Z,23.67
2019-02-05T13:10:38.099Z,23.80
2019-02-05T13:13:08.211Z,22.80
2019-02-05T13:15:37.555Z,22.60
2019-02-05T13:18:07.308Z,22.63
2019-02-05T13:20:36.566Z,22.87
2019-02-05T13:23:06.686Z,23.43
2019-02-05T13:25:36.014Z,22.73
2019-02-05T13:28:07.096Z,23.33
2019-02-05T13:30:37.323Z,24.13
2019-02-05T13:33:07.554Z,23.07
2019-02-05T13:35:37.061Z,21.70
2019-02-05T13:38:06.878Z,23.73
2019-02-05T13:40:36.218Z,23.17
2019-02-05T13:43:05.986Z,23.13
2019-02-05T13:45:35.876Z,23.90
2019-02-05T13:48:06.655Z,22.93
2019-02-05T13:50:36.200Z,23.93
2019-02-05T13:53:06.271Z,23.40
2019-02-05T13:55:38.209Z,23.43
2019-02-05T13:58:07.502Z,23.20
2019-02-05T14:00:45.253Z,24.77
2019-02-05T14:03:14.453Z,22.43
2019-02-05T14:05:43.737Z,23.53
2019-02-05T14:08:13.125Z,24.60
2019-02-05T14:10:42.470Z,21.83
2019-02-05T14:13:11.653Z,22.90
2019-02-05T14:15:42.055Z,21.97
2019-02-05T14:18:11.978Z,24.20
2019-02-05T14:20:41.238Z,24.50
2019-02-05T14:23:10.443Z,20.60
2019-02-05T14:25:39.723Z,23.73
2019-02-05T14:28:09.342Z,25.53
2019-02-05T14:31:02.177Z,23.27
2019-02-05T14:33:32.176Z,23.73
2019-02-05T14:36:02.356Z,22.63
2019-02-05T14:38:31.554Z,23.50
2019-02-05T14:41:00.770Z,24.40
2019-02-05T14:43:30.012Z,20.13
2019-02-05T14:45:59.244Z,23.03
2019-02-05T14:48:28.489Z,21.37
2019-02-05T14:50:57.699Z,22.97
2019-02-05T14:53:26.953Z,21.37
2019-02-05T14:55:56.240Z,20.17
2019-02-05T14:58:25.465Z,21.13
2019-02-05T15:00:54.877Z,21.33
2019-02-05T15:03:24.059Z,21.00
2019-02-05T15:05:53.754Z,21.47
2019-02-05T15:08:22.918Z,21.27
2019-02-05T15:10:52.540Z,21.53
2019-02-05T15:13:21.853Z,21.63
2019-02-05T15:15:51.051Z,21.90
2019-02-05T15:18:22.296Z,19.53
2019-02-05T15:20:51.784Z,21.60
2019-02-05T15:23:21.580Z,20.47
2019-02-05T15:25:51.147Z,20.80
2019-02-05T15:28:20.415Z,20.73
2019-02-05T15:30:50.027Z,20.53
2019-02-05T15:33:48.293Z,20.40
2019-02-05T15:36:34.897Z,21.13
2019-02-05T15:39:13.785Z,21.93
2019-02-05T15:41:43.015Z,21.07
2019-02-05T15:44:12.556Z,22.40
2019-02-05T15:46:42.663Z,23.93
2019-02-05T15:49:12.060Z,21.97
2019-02-05T15:51:41.312Z,22.83
2019-02-05T15:54:10.543Z,23.83
2019-02-05T15:56:39.711Z,23.93
2019-02-05T15:59:09.389Z,24.13
2019-02-05T16:01:38.672Z,23.70
2019-02-05T16:04:07.867Z,24.73
2019-02-05T16:06:37.085Z,24.00
2019-02-05T16:09:08.805Z,24.80
2019-02-05T16:11:38.006Z,24.00
2019-02-05T16:14:07.650Z,24.47
2019-02-05T16:16:36.901Z,23.83
2019-02-05T16:19:06.077Z,24.27
2019-02-05T16:21:35.503Z,24.40
2019-02-05T16:24:04.790Z,23.20
2019-02-05T16:26:34.054Z,23.20
2019-02-05T16:29:03.620Z,24.07
2019-02-05T16:31:32.822Z,22.87
2019-02-05T16:34:02.502Z,23.17
2019-02-05T16:36:31.715Z,23.93
2019-02-05T16:39:00.885Z,23.53
2019-02-05T16:41:30.202Z,24.43
2019-02-05T16:43:59.676Z,22.73
2019-02-05T16:46:29.074Z,24.67
2019-02-05T16:48:58.463Z,23.30
2019-02-05T16:51:27.634Z,24.17
2019-02-05T16:53:56.962Z,23.63
2019-02-05T16:56:26.126Z,24.17
2019-02-05T16:58:55.364Z,23.33
2019-02-05T17:01:24.640Z,22.93
2019-02-05T17:03:53.871Z,23.63
2019-02-05T17:06:23.156Z,23.63
2019-02-05T17:08:52.309Z,25.00
2019-02-05T17:11:21.730Z,25.00
2019-02-05T17:13:50.888Z,26.20
2019-02-05T17:16:20.183Z,25.17
2019-02-05T17:18:49.563Z,26.97
2019-02-05T17:21:18.753Z,26.27
2019-02-05T17:23:47.926Z,26.90
2019-02-05T17:26:17.175Z,27.23
2019-02-05T17:28:46.341Z,27.43
2019-02-05T17:31:15.559Z,26.53
2019-02-05T17:33:44.866Z,28.53
2019-02-05T17:36:14.143Z,28.17
2019-02-05T17:38:43.411Z,27.90
2019-02-05T17:41:12.642Z,27.70
2019-02-05T17:43:41.891Z,27.40
2019-02-05T17:46:11.087Z,27.67
2019-02-05T17:48:40.513Z,27.30
2019-02-05T17:51:09.929Z,26.97
2019-02-05T17:53:39.174Z,27.10
2019-02-05T17:56:08.452Z,25.43
2019-02-05T17:58:37.738Z,25.23
2019-02-05T18:01:10.216Z,26.90
2019-02-05T18:03:39.653Z,25.80
2019-02-05T18:06:08.962Z,26.50
2019-02-05T18:08:38.314Z,25.03
2019-02-05T18:11:08.140Z,23.93
2019-02-05T18:13:37.603Z,24.63
2019-02-05T18:16:27.714Z,25.30
2019-02-05T18:18:56.955Z,25.17
2019-02-05T18:21:28.444Z,24.73
2019-02-05T18:23:57.715Z,25.27
2019-02-05T18:26:27.041Z,24.73
2019-02-05T18:28:56.270Z,24.47
2019-02-05T18:31:27.168Z,25.70
2019-02-05T18:33:56.528Z,25.20
2019-02-05T18:36:28.566Z,27.90
2019-02-05T18:38:58.206Z,26.63
2019-02-05T18:41:27.502Z,27.83
2019-02-05T18:43:56.796Z,26.77
2019-02-05T18:46:26.299Z,26.27
2019-02-05T18:49:04.539Z,27.83
2019-02-05T18:51:26.513Z,27.50
2019-02-05T18:53:56.002Z,29.23
2019-02-05T18:56:25.436Z,27.73
2019-02-05T18:58:54.998Z,28.50
2019-02-05T19:01:24.444Z,28.63
2019-02-05T19:03:53.844Z,27.33
2019-02-05T19:06:24.321Z,27.87
2019-02-05T19:08:56.285Z,26.93
2019-02-05T19:11:25.611Z,26.43
2019-02-05T19:13:55.099Z,26.57
2019-02-05T19:16:25.229Z,24.60
2019-02-05T19:18:54.764Z,25.77
2019-02-05T19:21:24.097Z,25.77
2019-02-05T19:24:03.530Z,24.10
2019-02-05T19:26:41.139Z,24.07
2019-02-05T19:29:18.478Z,25.37
2019-02-05T19:31:42.482Z,25.27
2019-02-05T19:34:13.305Z,24.67
2019-02-05T19:36:44.227Z,26.20
2019-02-05T19:39:13.581Z,25.67
2019-02-05T19:41:45.513Z,26.27
2019-02-05T19:44:14.810Z,27.07
2019-02-05T19:47:05.371Z,25.43
2019-02-05T19:49:39.818Z,27.50
2019-02-05T19:52:09.307Z,25.93
2019-02-05T19:54:38.724Z,25.30
2019-02-05T19:57:08.025Z,26.17
2019-02-05T19:59:38.495Z,25.30
2019-02-05T20:02:08.763Z,24.37
2019-02-05T20:04:38.166Z,26.30
2019-02-05T20:07:08.196Z,26.10
2019-02-05T20:09:37.626Z,24.10
2019-02-05T20:12:08.154Z,21.03
2019-02-05T20:14:37.572Z,24.10
2019-02-05T20:17:07.560Z,24.17
2019-02-05T20:19:36.893Z,24.83
2019-02-05T20:22:06.529Z,25.60
2019-02-05T20:24:37.116Z,26.77
2019-02-05T20:27:06.694Z,25.37
2019-02-05T20:29:36.255Z,25.77
2019-02-05T20:32:08.583Z,25.47
2019-02-05T20:34:37.966Z,24.33
2019-02-05T20:37:07.673Z,26.23
2019-02-05T20:39:37.482Z,25.93
2019-02-05T20:42:07.620Z,26.60
2019-02-05T20:44:37.037Z,25.63
2019-02-05T20:47:06.790Z,28.77
2019-02-05T20:49:37.629Z,28.93
2019-02-05T20:52:07.376Z,27.93
2019-02-05T20:54:36.551Z,28.77
2019-02-05T20:57:06.067Z,28.87
2019-02-05T20:59:35.381Z,27.37
2019-02-05T21:02:04.770Z,28.63
2019-02-05T21:04:35.555Z,30.60
2019-02-05T21:07:07.811Z,29.97
2019-02-05T21:09:37.187Z,29.60
2019-02-05T21:12:06.742Z,29.63
2019-02-05T21:14:36.002Z,31.60
2019-02-05T21:17:07.831Z,30.77
2019-02-05T21:19:37.134Z,31.43
2019-02-05T21:22:08.941Z,31.27
2019-02-05T21:24:38.351Z,31.83
2019-02-05T21:27:07.823Z,33.13
2019-02-05T21:29:37.413Z,32.63
2019-02-05T21:32:06.645Z,33.53
2019-02-05T21:34:37.832Z,34.37
2019-02-05T21:37:09.434Z,33.33
2019-02-05T21:39:38.777Z,34.37
2019-02-05T21:42:08.079Z,33.73
2019-02-05T21:44:37.280Z,34.57
2019-02-05T21:47:06.563Z,34.37
2019-02-05T21:49:35.876Z,34.37
2019-02-05T21:52:05.184Z,34.57
2019-02-05T21:54:34.374Z,35.87
2019-02-05T21:57:03.694Z,34.63
2019-02-05T21:59:32.919Z,33.77
2019-02-05T22:02:02.180Z,35.37
2019-02-05T22:04:31.649Z,32.80
2019-02-05T22:07:00.878Z,34.30
2019-02-05T22:09:30.073Z,32.83
2019-02-05T22:11:59.415Z,34.00
2019-02-05T22:14:28.665Z,32.73
2019-02-05T22:16:57.885Z,33.40
2019-02-05T22:19:27.426Z,33.07
2019-02-05T22:21:56.635Z,35.10
2019-02-05T22:24:25.793Z,33.77
2019-02-05T22:26:54.972Z,33.50
2019-02-05T22:29:24.190Z,32.70
2019-02-05T22:31:53.396Z,32.83
2019-02-05T22:34:22.854Z,32.50
2019-02-05T22:36:52.017Z,33.30
2019-02-05T22:39:21.615Z,34.23
2019-02-05T22:41:50.856Z,31.90
2019-02-05T22:44:20.271Z,32.97
2019-02-05T22:46:49.828Z,31.03
2019-02-05T22:49:19.042Z,30.33
2019-02-05T22:51:48.577Z,31.77
2019-02-05T22:54:17.864Z,30.40
2019-02-05T22:56:47.449Z,32.13
2019-02-05T22:59:17.146Z,29.37
2019-02-05T23:01:55.599Z,29.73
2019-02-05T23:04:51.307Z,29.87
2019-02-05T23:07:22.360Z,28.90
2019-02-05T23:10:21.949Z,31.40
